sensor_id;sensor_type;location;lat;lon;timestamp;P1;durP1;ratioP1;P2;durP2;ratioP2
14613;SDS011;7393;51.446;6.800;2023-05-14T00:01:03;9.53;;;7.60;;
14613;SDS011;7393;51.446;6.800;2023-05-14T00:03:32;14.37;;;8.63;;
14613;SDS011;7393;51.446;6.800;2023-05-14T00:05:58;10.93;;;7.57;;
14613;SDS011;7393;51.446;6.800;2023-05-14T00:08:25;8.93;;;7.37;;
14613;SDS011;7393;51.446;6.800;2023-05-14T00:10:54;9.00;;;8.07;;
14613;SDS011;7393;51.446;6.800;2023-05-14T00:13:21;9.83;;;8.00;;
14613;SDS011;7393;51.446;6.800;2023-05-14T00:15:47;11.20;;;8.20;;
14613;SDS011;7393;51.446;6.800;2023-05-14T00:18:14;9.37;;;7.97;;
14613;SDS011;7393;51.446;6.800;2023-05-14T00:20:41;13.20;;;8.67;;
14613;SDS011;7393;51.446;6.800;2023-05-14T00:23:08;8.57;;;7.67;;
14613;SDS011;7393;51.446;6.800;2023-05-14T00:25:35;12.07;;;8.53;;
14613;SDS011;7393;51.446;6.800;2023-05-14T00:28:03;11.20;;;8.37;;
14613;SDS011;7393;51.446;6.800;2023-05-14T00:30:30;9.13;;;8.00;;
14613;SDS011;7393;51.446;6.800;2023-05-14T00:32:57;11.43;;;8.77;;
14613;SDS011;7393;51.446;6.800;2023-05-14T00:35:23;10.97;;;8.33;;
14613;SDS011;7393;51.446;6.800;2023-05-14T00:37:50;12.50;;;8.70;;
14613;SDS011;7393;51.446;6.800;2023-05-14T00:40:17;11.53;;;8.80;;
14613;SDS011;7393;51.446;6.800;2023-05-14T00:42:45;9.17;;;8.13;;
14613;SDS011;7393;51.446;6.800;2023-05-14T00:45:13;10.43;;;8.23;;
14613;SDS011;7393;51.446;6.800;2023-05-14T00:47:40;9.70;;;8.37;;
14613;SDS011;7393;51.446;6.800;2023-05-14T00:50:07;12.60;;;8.80;;
14613;SDS011;7393;51.446;6.800;2023-05-14T00:52:34;10.03;;;8.67;;
14613;SDS011;7393;51.446;6.800;2023-05-14T00:55:02;9.37;;;8.10;;
14613;SDS011;7393;51.446;6.800;2023-05-14T00:57:31;9.40;;;8.30;;
14613;SDS011;7393;51.446;6.800;2023-05-14T00:59:57;8.80;;;7.90;;
14613;SDS011;7393;51.446;6.800;2023-05-14T01:02:26;9.40;;;8.20;;
14613;SDS011;7393;51.446;6.800;2023-05-14T01:04:53;9.17;;;8.27;;
14613;SDS011;7393;51.446;6.800;2023-05-14T01:07:23;11.73;;;9.00;;
14613;SDS011;7393;51.446;6.800;2023-05-14T01:09:56;11.33;;;9.00;;
14613;SDS011;7393;51.446;6.800;2023-05-14T01:12:28;13.00;;;10.53;;
14613;SDS011;7393;51.446;6.800;2023-05-14T01:15:01;12.77;;;11.27;;
14613;SDS011;7393;51.446;6.800;2023-05-14T01:17:38;15.20;;;11.23;;
14613;SDS011;7393;51.446;6.800;2023-05-14T01:20:17;14.20;;;11.23;;
14613;SDS011;7393;51.446;6.800;2023-05-14T01:22:45;14.87;;;10.20;;
14613;SDS011;7393;51.446;6.800;2023-05-14T01:25:12;9.60;;;8.60;;
14613;SDS011;7393;51.446;6.800;2023-05-14T01:27:40;8.80;;;7.90;;
14613;SDS011;7393;51.446;6.800;2023-05-14T01:30:21;9.53;;;8.33;;
14613;SDS011;7393;51.446;6.800;2023-05-14T01:32:55;8.40;;;7.60;;
14613;SDS011;7393;51.446;6.800;2023-05-14T01:35:24;12.20;;;7.93;;
14613;SDS011;7393;51.446;6.800;2023-05-14T01:37:55;12.23;;;8.43;;
14613;SDS011;7393;51.446;6.800;2023-05-14T01:40:24;9.80;;;7.83;;
14613;SDS011;7393;51.446;6.800;2023-05-14T01:42:52;9.13;;;7.93;;
14613;SDS011;7393;51.446;6.800;2023-05-14T01:45:19;10.23;;;7.73;;
14613;SDS011;7393;51.446;6.800;2023-05-14T01:47:46;12.43;;;8.73;;
14613;SDS011;7393;51.446;6.800;2023-05-14T01:50:13;9.60;;;8.53;;
14613;SDS011;7393;51.446;6.800;2023-05-14T01:52:39;9.87;;;8.83;;
14613;SDS011;7393;51.446;6.800;2023-05-14T01:55:08;9.50;;;8.23;;
14613;SDS011;7393;51.446;6.800;2023-05-14T01:57:35;10.07;;;8.73;;
14613;SDS011;7393;51.446;6.800;2023-05-14T02:00:02;10.30;;;9.17;;
14613;SDS011;7393;51.446;6.800;2023-05-14T02:02:29;9.17;;;8.27;;
14613;SDS011;7393;51.446;6.800;2023-05-14T02:04:56;9.23;;;8.33;;
14613;SDS011;7393;51.446;6.800;2023-05-14T02:07:22;9.70;;;8.70;;
14613;SDS011;7393;51.446;6.800;2023-05-14T02:09:49;9.90;;;8.90;;
14613;SDS011;7393;51.446;6.800;2023-05-14T02:12:17;10.63;;;8.67;;
14613;SDS011;7393;51.446;6.800;2023-05-14T02:14:44;12.07;;;9.40;;
14613;SDS011;7393;51.446;6.800;2023-05-14T02:17:11;11.60;;;9.60;;
14613;SDS011;7393;51.446;6.800;2023-05-14T02:19:39;17.87;;;9.87;;
14613;SDS011;7393;51.446;6.800;2023-05-14T02:22:06;12.60;;;9.93;;
14613;SDS011;7393;51.446;6.800;2023-05-14T02:24:33;10.47;;;9.10;;
14613;SDS011;7393;51.446;6.800;2023-05-14T02:27:00;11.60;;;9.00;;
14613;SDS011;7393;51.446;6.800;2023-05-14T02:29:28;10.73;;;9.63;;
14613;SDS011;7393;51.446;6.800;2023-05-14T02:31:55;11.37;;;8.90;;
14613;SDS011;7393;51.446;6.800;2023-05-14T02:34:22;11.73;;;9.33;;
14613;SDS011;7393;51.446;6.800;2023-05-14T02:36:48;11.57;;;10.23;;
14613;SDS011;7393;51.446;6.800;2023-05-14T02:39:15;12.97;;;10.13;;
14613;SDS011;7393;51.446;6.800;2023-05-14T02:41:42;14.63;;;11.63;;
14613;SDS011;7393;51.446;6.800;2023-05-14T02:44:09;13.73;;;11.27;;
14613;SDS011;7393;51.446;6.800;2023-05-14T02:46:37;13.43;;;10.37;;
14613;SDS011;7393;51.446;6.800;2023-05-14T02:49:04;12.57;;;10.47;;
14613;SDS011;7393;51.446;6.800;2023-05-14T02:51:30;11.97;;;10.33;;
14613;SDS011;7393;51.446;6.800;2023-05-14T02:53:57;12.13;;;10.30;;
14613;SDS011;7393;51.446;6.800;2023-05-14T02:56:24;12.53;;;10.47;;
14613;SDS011;7393;51.446;6.800;2023-05-14T02:58:51;14.63;;;11.03;;
14613;SDS011;7393;51.446;6.800;2023-05-14T03:01:18;12.77;;;9.43;;
14613;SDS011;7393;51.446;6.800;2023-05-14T03:03:46;11.13;;;9.83;;
14613;SDS011;7393;51.446;6.800;2023-05-14T03:06:13;13.17;;;10.80;;
14613;SDS011;7393;51.446;6.800;2023-05-14T03:08:40;12.43;;;10.50;;
14613;SDS011;7393;51.446;6.800;2023-05-14T03:11:06;10.20;;;9.13;;
14613;SDS011;7393;51.446;6.800;2023-05-14T03:13:33;13.87;;;9.87;;
14613;SDS011;7393;51.446;6.800;2023-05-14T03:16:00;10.77;;;9.37;;
14613;SDS011;7393;51.446;6.800;2023-05-14T03:18:27;12.97;;;9.67;;
14613;SDS011;7393;51.446;6.800;2023-05-14T03:20:56;12.70;;;9.43;;
14613;SDS011;7393;51.446;6.800;2023-05-14T03:23:22;11.60;;;9.40;;
14613;SDS011;7393;51.446;6.800;2023-05-14T03:25:49;11.37;;;9.40;;
14613;SDS011;7393;51.446;6.800;2023-05-14T03:28:16;11.77;;;9.63;;
14613;SDS011;7393;51.446;6.800;2023-05-14T03:30:43;12.10;;;9.00;;
14613;SDS011;7393;51.446;6.800;2023-05-14T03:33:10;10.53;;;9.03;;
14613;SDS011;7393;51.446;6.800;2023-05-14T03:35:37;10.73;;;8.90;;
14613;SDS011;7393;51.446;6.800;2023-05-14T03:38:05;12.37;;;9.60;;
14613;SDS011;7393;51.446;6.800;2023-05-14T03:40:31;10.40;;;9.40;;
14613;SDS011;7393;51.446;6.800;2023-05-14T03:42:58;10.07;;;9.10;;
14613;SDS011;7393;51.446;6.800;2023-05-14T03:45:25;11.63;;;10.00;;
14613;SDS011;7393;51.446;6.800;2023-05-14T03:47:54;12.53;;;9.90;;
14613;SDS011;7393;51.446;6.800;2023-05-14T03:50:21;10.30;;;9.17;;
14613;SDS011;7393;51.446;6.800;2023-05-14T03:52:49;11.80;;;10.57;;
14613;SDS011;7393;51.446;6.800;2023-05-14T03:55:17;10.60;;;9.57;;
14613;SDS011;7393;51.446;6.800;2023-05-14T03:57:44;10.73;;;9.63;;
14613;SDS011;7393;51.446;6.800;2023-05-14T04:00:11;11.57;;;10.37;;
14613;SDS011;7393;51.446;6.800;2023-05-14T04:02:39;11.10;;;9.47;;
14613;SDS011;7393;51.446;6.800;2023-05-14T04:05:06;11.33;;;9.93;;
14613;SDS011;7393;51.446;6.800;2023-05-14T04:07:33;11.00;;;9.80;;
14613;SDS011;7393;51.446;6.800;2023-05-14T04:10:00;11.03;;;9.93;;
14613;SDS011;7393;51.446;6.800;2023-05-14T04:12:29;12.03;;;10.17;;
14613;SDS011;7393;51.446;6.800;2023-05-14T04:14:56;10.83;;;9.50;;
14613;SDS011;7393;51.446;6.800;2023-05-14T04:17:23;10.83;;;9.73;;
14613;SDS011;7393;51.446;6.800;2023-05-14T04:19:50;15.53;;;10.20;;
14613;SDS011;7393;51.446;6.800;2023-05-14T04:22:17;10.60;;;9.50;;
14613;SDS011;7393;51.446;6.800;2023-05-14T04:24:44;12.33;;;10.30;;
14613;SDS011;7393;51.446;6.800;2023-05-14T04:27:13;14.60;;;10.90;;
14613;SDS011;7393;51.446;6.800;2023-05-14T04:29:41;13.23;;;10.10;;
14613;SDS011;7393;51.446;6.800;2023-05-14T04:32:08;11.57;;;10.37;;
14613;SDS011;7393;51.446;6.800;2023-05-14T04:34:36;14.50;;;10.80;;
14613;SDS011;7393;51.446;6.800;2023-05-14T04:37:04;11.27;;;10.17;;
14613;SDS011;7393;51.446;6.800;2023-05-14T04:39:30;13.73;;;10.83;;
14613;SDS011;7393;51.446;6.800;2023-05-14T04:41:57;15.07;;;11.23;;
14613;SDS011;7393;51.446;6.800;2023-05-14T04:44:24;10.90;;;9.13;;
14613;SDS011;7393;51.446;6.800;2023-05-14T04:46:53;10.13;;;8.87;;
14613;SDS011;7393;51.446;6.800;2023-05-14T04:49:19;10.27;;;8.93;;
14613;SDS011;7393;51.446;6.800;2023-05-14T04:51:46;10.47;;;9.07;;
14613;SDS011;7393;51.446;6.800;2023-05-14T04:54:13;11.20;;;9.70;;
14613;SDS011;7393;51.446;6.800;2023-05-14T04:56:40;11.33;;;10.20;;
14613;SDS011;7393;51.446;6.800;2023-05-14T04:59:07;11.07;;;9.97;;
14613;SDS011;7393;51.446;6.800;2023-05-14T05:01:33;10.43;;;9.40;;
14613;SDS011;7393;51.446;6.800;2023-05-14T05:04:01;10.57;;;9.47;;
14613;SDS011;7393;51.446;6.800;2023-05-14T05:06:28;11.03;;;9.93;;
14613;SDS011;7393;51.446;6.800;2023-05-14T05:08:55;12.70;;;10.93;;
14613;SDS011;7393;51.446;6.800;2023-05-14T05:11:22;11.73;;;10.50;;
14613;SDS011;7393;51.446;6.800;2023-05-14T05:13:49;12.90;;;11.07;;
14613;SDS011;7393;51.446;6.800;2023-05-14T05:16:15;12.77;;;11.40;;
14613;SDS011;7393;51.446;6.800;2023-05-14T05:18:42;13.63;;;12.23;;
14613;SDS011;7393;51.446;6.800;2023-05-14T05:21:11;12.83;;;11.53;;
14613;SDS011;7393;51.446;6.800;2023-05-14T05:23:37;15.83;;;12.27;;
14613;SDS011;7393;51.446;6.800;2023-05-14T05:26:04;14.70;;;13.20;;
14613;SDS011;7393;51.446;6.800;2023-05-14T05:28:31;15.27;;;13.10;;
14613;SDS011;7393;51.446;6.800;2023-05-14T05:30:58;14.03;;;12.73;;
14613;SDS011;7393;51.446;6.800;2023-05-14T05:33:24;15.00;;;13.20;;
14613;SDS011;7393;51.446;6.800;2023-05-14T05:35:51;14.83;;;13.10;;
14613;SDS011;7393;51.446;6.800;2023-05-14T05:38:19;16.40;;;14.57;;
14613;SDS011;7393;51.446;6.800;2023-05-14T05:40:46;16.23;;;14.47;;
14613;SDS011;7393;51.446;6.800;2023-05-14T05:43:13;16.13;;;14.53;;
14613;SDS011;7393;51.446;6.800;2023-05-14T05:45:40;15.10;;;13.60;;
14613;SDS011;7393;51.446;6.800;2023-05-14T05:48:07;17.23;;;14.40;;
14613;SDS011;7393;51.446;6.800;2023-05-14T05:50:34;17.87;;;15.97;;
14613;SDS011;7393;51.446;6.800;2023-05-14T05:53:01;16.93;;;14.80;;
14613;SDS011;7393;51.446;6.800;2023-05-14T05:55:29;17.30;;;15.37;;
14613;SDS011;7393;51.446;6.800;2023-05-14T05:57:56;17.70;;;15.80;;
14613;SDS011;7393;51.446;6.800;2023-05-14T06:00:23;19.13;;;17.20;;
14613;SDS011;7393;51.446;6.800;2023-05-14T06:02:49;18.90;;;16.83;;
14613;SDS011;7393;51.446;6.800;2023-05-14T06:05:16;17.27;;;15.47;;
14613;SDS011;7393;51.446;6.800;2023-05-14T06:07:43;17.97;;;15.40;;
14613;SDS011;7393;51.446;6.800;2023-05-14T06:10:10;18.43;;;16.43;;
14613;SDS011;7393;51.446;6.800;2023-05-14T06:12:38;17.90;;;16.10;;
14613;SDS011;7393;51.446;6.800;2023-05-14T06:15:05;17.67;;;15.87;;
14613;SDS011;7393;51.446;6.800;2023-05-14T06:17:33;18.73;;;16.53;;
14613;SDS011;7393;51.446;6.800;2023-05-14T06:19:59;20.07;;;17.93;;
14613;SDS011;7393;51.446;6.800;2023-05-14T06:22:26;18.50;;;16.70;;
14613;SDS011;7393;51.446;6.800;2023-05-14T06:24:53;20.83;;;17.13;;
14613;SDS011;7393;51.446;6.800;2023-05-14T06:27:20;18.20;;;16.30;;
14613;SDS011;7393;51.446;6.800;2023-05-14T06:29:48;18.67;;;16.73;;
14613;SDS011;7393;51.446;6.800;2023-05-14T06:32:15;17.77;;;15.97;;
14613;SDS011;7393;51.446;6.800;2023-05-14T06:34:41;18.63;;;16.67;;
14613;SDS011;7393;51.446;6.800;2023-05-14T06:37:08;18.53;;;15.97;;
14613;SDS011;7393;51.446;6.800;2023-05-14T06:39:37;18.77;;;16.53;;
14613;SDS011;7393;51.446;6.800;2023-05-14T06:42:04;18.43;;;16.57;;
14613;SDS011;7393;51.446;6.800;2023-05-14T06:44:31;19.37;;;15.80;;
14613;SDS011;7393;51.446;6.800;2023-05-14T06:46:59;17.43;;;15.53;;
14613;SDS011;7393;51.446;6.800;2023-05-14T06:49:26;19.63;;;17.57;;
14613;SDS011;7393;51.446;6.800;2023-05-14T06:51:53;18.07;;;15.93;;
14613;SDS011;7393;51.446;6.800;2023-05-14T06:54:20;17.63;;;15.83;;
14613;SDS011;7393;51.446;6.800;2023-05-14T06:56:46;17.60;;;15.73;;
14613;SDS011;7393;51.446;6.800;2023-05-14T06:59:13;16.97;;;15.27;;
14613;SDS011;7393;51.446;6.800;2023-05-14T07:01:40;17.47;;;15.73;;
14613;SDS011;7393;51.446;6.800;2023-05-14T07:04:08;17.50;;;14.90;;
14613;SDS011;7393;51.446;6.800;2023-05-14T07:06:35;17.13;;;15.23;;
14613;SDS011;7393;51.446;6.800;2023-05-14T07:09:02;16.37;;;14.77;;
14613;SDS011;7393;51.446;6.800;2023-05-14T07:11:29;16.37;;;14.67;;
14613;SDS011;7393;51.446;6.800;2023-05-14T07:13:56;17.53;;;15.70;;
14613;SDS011;7393;51.446;6.800;2023-05-14T07:16:22;17.73;;;15.87;;
14613;SDS011;7393;51.446;6.800;2023-05-14T07:18:49;16.60;;;14.90;;
14613;SDS011;7393;51.446;6.800;2023-05-14T07:21:17;14.20;;;12.80;;
14613;SDS011;7393;51.446;6.800;2023-05-14T07:23:44;15.47;;;13.93;;
14613;SDS011;7393;51.446;6.800;2023-05-14T07:26:11;18.23;;;14.20;;
14613;SDS011;7393;51.446;6.800;2023-05-14T07:28:38;15.87;;;14.17;;
14613;SDS011;7393;51.446;6.800;2023-05-14T07:31:05;14.50;;;12.70;;
14613;SDS011;7393;51.446;6.800;2023-05-14T07:33:32;14.63;;;12.20;;
14613;SDS011;7393;51.446;6.800;2023-05-14T07:35:59;14.03;;;12.40;;
14613;SDS011;7393;51.446;6.800;2023-05-14T07:38:27;14.07;;;12.10;;
14613;SDS011;7393;51.446;6.800;2023-05-14T07:40:55;13.30;;;12.00;;
14613;SDS011;7393;51.446;6.800;2023-05-14T07:43:21;14.00;;;12.40;;
14613;SDS011;7393;51.446;6.800;2023-05-14T07:45:48;13.83;;;11.87;;
14613;SDS011;7393;51.446;6.800;2023-05-14T07:48:15;14.53;;;11.40;;
14613;SDS011;7393;51.446;6.800;2023-05-14T07:50:42;12.40;;;10.77;;
14613;SDS011;7393;51.446;6.800;2023-05-14T07:53:09;14.37;;;10.90;;
14613;SDS011;7393;51.446;6.800;2023-05-14T07:55:37;10.53;;;9.43;;
14613;SDS011;7393;51.446;6.800;2023-05-14T07:58:04;13.07;;;10.37;;
14613;SDS011;7393;51.446;6.800;2023-05-14T08:00:31;12.90;;;9.53;;
14613;SDS011;7393;51.446;6.800;2023-05-14T08:02:57;14.50;;;9.13;;
14613;SDS011;7393;51.446;6.800;2023-05-14T08:05:24;9.37;;;8.47;;
14613;SDS011;7393;51.446;6.800;2023-05-14T08:07:51;10.30;;;8.93;;
14613;SDS011;7393;51.446;6.800;2023-05-14T08:10:18;9.17;;;8.27;;
14613;SDS011;7393;51.446;6.800;2023-05-14T08:12:46;8.67;;;7.73;;
14613;SDS011;7393;51.446;6.800;2023-05-14T08:15:13;7.63;;;6.57;;
14613;SDS011;7393;51.446;6.800;2023-05-14T08:17:40;7.93;;;6.43;;
14613;SDS011;7393;51.446;6.800;2023-05-14T08:20:08;7.57;;;6.10;;
14613;SDS011;7393;51.446;6.800;2023-05-14T08:22:36;8.13;;;5.93;;
14613;SDS011;7393;51.446;6.800;2023-05-14T08:25:03;5.00;;;4.57;;
14613;SDS011;7393;51.446;6.800;2023-05-14T08:27:30;5.40;;;4.90;;
14613;SDS011;7393;51.446;6.800;2023-05-14T08:29:58;4.33;;;3.93;;
14613;SDS011;7393;51.446;6.800;2023-05-14T08:32:25;4.83;;;3.70;;
14613;SDS011;7393;51.446;6.800;2023-05-14T08:34:52;4.80;;;3.37;;
14613;SDS011;7393;51.446;6.800;2023-05-14T08:37:19;3.90;;;3.23;;
14613;SDS011;7393;51.446;6.800;2023-05-14T08:39:45;3.67;;;3.37;;
14613;SDS011;7393;51.446;6.800;2023-05-14T08:42:12;4.30;;;2.97;;
14613;SDS011;7393;51.446;6.800;2023-05-14T08:44:44;6.70;;;3.33;;
14613;SDS011;7393;51.446;6.800;2023-05-14T08:47:16;3.87;;;3.43;;
14613;SDS011;7393;51.446;6.800;2023-05-14T08:49:46;4.37;;;3.67;;
14613;SDS011;7393;51.446;6.800;2023-05-14T08:52:18;6.87;;;3.20;;
14613;SDS011;7393;51.446;6.800;2023-05-14T08:54:47;3.70;;;3.40;;
14613;SDS011;7393;51.446;6.800;2023-05-14T08:57:17;3.50;;;3.20;;
14613;SDS011;7393;51.446;6.800;2023-05-14T08:59:48;4.43;;;3.67;;
14613;SDS011;7393;51.446;6.800;2023-05-14T09:02:16;4.03;;;3.40;;
14613;SDS011;7393;51.446;6.800;2023-05-14T09:04:47;4.23;;;3.60;;
14613;SDS011;7393;51.446;6.800;2023-05-14T09:07:16;4.23;;;3.20;;
14613;SDS011;7393;51.446;6.800;2023-05-14T09:09:43;3.27;;;2.97;;
14613;SDS011;7393;51.446;6.800;2023-05-14T09:12:10;5.93;;;3.20;;
14613;SDS011;7393;51.446;6.800;2023-05-14T09:14:36;4.47;;;2.90;;
14613;SDS011;7393;51.446;6.800;2023-05-14T09:17:03;4.67;;;3.23;;
14613;SDS011;7393;51.446;6.800;2023-05-14T09:19:31;3.97;;;3.07;;
14613;SDS011;7393;51.446;6.800;2023-05-14T09:21:58;3.33;;;3.00;;
14613;SDS011;7393;51.446;6.800;2023-05-14T09:24:25;3.30;;;2.93;;
14613;SDS011;7393;51.446;6.800;2023-05-14T09:26:54;3.43;;;3.10;;
14613;SDS011;7393;51.446;6.800;2023-05-14T09:29:22;4.23;;;2.77;;
14613;SDS011;7393;51.446;6.800;2023-05-14T09:31:49;3.27;;;2.97;;
14613;SDS011;7393;51.446;6.800;2023-05-14T09:34:22;3.37;;;2.80;;
14613;SDS011;7393;51.446;6.800;2023-05-14T09:36:51;3.23;;;2.67;;
14613;SDS011;7393;51.446;6.800;2023-05-14T09:39:21;3.07;;;2.73;;
14613;SDS011;7393;51.446;6.800;2023-05-14T09:41:48;3.37;;;2.70;;
14613;SDS011;7393;51.446;6.800;2023-05-14T09:44:16;3.17;;;2.80;;
14613;SDS011;7393;51.446;6.800;2023-05-14T09:46:43;5.00;;;2.60;;
14613;SDS011;7393;51.446;6.800;2023-05-14T09:49:10;3.10;;;2.40;;
14613;SDS011;7393;51.446;6.800;2023-05-14T09:51:37;5.17;;;3.00;;
14613;SDS011;7393;51.446;6.800;2023-05-14T09:54:05;3.63;;;2.93;;
14613;SDS011;7393;51.446;6.800;2023-05-14T09:56:33;3.57;;;2.77;;
14613;SDS011;7393;51.446;6.800;2023-05-14T09:59:01;3.00;;;2.73;;
14613;SDS011;7393;51.446;6.800;2023-05-14T10:01:29;5.50;;;3.33;;
14613;SDS011;7393;51.446;6.800;2023-05-14T10:03:57;3.87;;;2.70;;
14613;SDS011;7393;51.446;6.800;2023-05-14T10:06:24;3.13;;;2.57;;
14613;SDS011;7393;51.446;6.800;2023-05-14T10:08:53;2.97;;;2.43;;
14613;SDS011;7393;51.446;6.800;2023-05-14T10:11:24;3.10;;;2.47;;
14613;SDS011;7393;51.446;6.800;2023-05-14T10:13:57;3.60;;;2.63;;
14613;SDS011;7393;51.446;6.800;2023-05-14T10:16:30;3.30;;;2.93;;
14613;SDS011;7393;51.446;6.800;2023-05-14T10:18:59;3.20;;;2.90;;
14613;SDS011;7393;51.446;6.800;2023-05-14T10:21:29;3.10;;;2.70;;
14613;SDS011;7393;51.446;6.800;2023-05-14T10:23:59;3.43;;;2.50;;
14613;SDS011;7393;51.446;6.800;2023-05-14T10:26:29;3.40;;;2.43;;
14613;SDS011;7393;51.446;6.800;2023-05-14T10:28:57;3.63;;;2.57;;
14613;SDS011;7393;51.446;6.800;2023-05-14T10:34:31;3.30;;;2.40;;
14613;SDS011;7393;51.446;6.800;2023-05-14T10:36:59;3.03;;;2.30;;
14613;SDS011;7393;51.446;6.800;2023-05-14T10:39:39;2.80;;;2.50;;
14613;SDS011;7393;51.446;6.800;2023-05-14T10:42:12;3.83;;;2.57;;
14613;SDS011;7393;51.446;6.800;2023-05-14T10:44:47;3.43;;;2.30;;
14613;SDS011;7393;51.446;6.800;2023-05-14T10:47:16;9.10;;;2.80;;
14613;SDS011;7393;51.446;6.800;2023-05-14T10:49:43;2.87;;;2.53;;
14613;SDS011;7393;51.446;6.800;2023-05-14T10:52:13;3.13;;;2.53;;
14613;SDS011;7393;51.446;6.800;2023-05-14T10:54:44;3.73;;;2.40;;
14613;SDS011;7393;51.446;6.800;2023-05-14T10:57:15;2.73;;;2.27;;
14613;SDS011;7393;51.446;6.800;2023-05-14T10:59:43;2.73;;;2.40;;
14613;SDS011;7393;51.446;6.800;2023-05-14T11:02:20;5.03;;;2.57;;
14613;SDS011;7393;51.446;6.800;2023-05-14T11:04:51;3.90;;;2.47;;
14613;SDS011;7393;51.446;6.800;2023-05-14T11:07:23;2.57;;;2.20;;
14613;SDS011;7393;51.446;6.800;2023-05-14T11:09:55;5.50;;;2.57;;
14613;SDS011;7393;51.446;6.800;2023-05-14T11:12:27;4.03;;;2.50;;
14613;SDS011;7393;51.446;6.800;2023-05-14T11:14:55;2.50;;;2.30;;
14613;SDS011;7393;51.446;6.800;2023-05-14T11:17:23;2.40;;;2.20;;
14613;SDS011;7393;51.446;6.800;2023-05-14T11:19:51;2.47;;;2.07;;
14613;SDS011;7393;51.446;6.800;2023-05-14T11:22:17;2.97;;;2.67;;
14613;SDS011;7393;51.446;6.800;2023-05-14T11:24:44;3.63;;;2.70;;
14613;SDS011;7393;51.446;6.800;2023-05-14T11:27:11;2.30;;;2.07;;
14613;SDS011;7393;51.446;6.800;2023-05-14T11:29:42;2.50;;;2.00;;
14613;SDS011;7393;51.446;6.800;2023-05-14T11:32:09;4.47;;;2.10;;
14613;SDS011;7393;51.446;6.800;2023-05-14T11:34:36;5.03;;;1.90;;
14613;SDS011;7393;51.446;6.800;2023-05-14T11:37:03;3.13;;;2.20;;
14613;SDS011;7393;51.446;6.800;2023-05-14T11:39:30;4.00;;;2.80;;
14613;SDS011;7393;51.446;6.800;2023-05-14T11:41:57;7.83;;;3.00;;
14613;SDS011;7393;51.446;6.800;2023-05-14T11:44:24;6.87;;;2.47;;
14613;SDS011;7393;51.446;6.800;2023-05-14T11:46:56;3.17;;;2.10;;
14613;SDS011;7393;51.446;6.800;2023-05-14T11:49:24;2.60;;;2.17;;
14613;SDS011;7393;51.446;6.800;2023-05-14T11:51:56;5.03;;;2.33;;
14613;SDS011;7393;51.446;6.800;2023-05-14T11:54:24;4.33;;;2.20;;
14613;SDS011;7393;51.446;6.800;2023-05-14T11:56:53;2.60;;;1.93;;
14613;SDS011;7393;51.446;6.800;2023-05-14T11:59:20;4.03;;;2.10;;
14613;SDS011;7393;51.446;6.800;2023-05-14T12:01:49;3.57;;;2.20;;
14613;SDS011;7393;51.446;6.800;2023-05-14T12:04:18;3.30;;;2.20;;
14613;SDS011;7393;51.446;6.800;2023-05-14T12:06:46;2.43;;;2.10;;
14613;SDS011;7393;51.446;6.800;2023-05-14T12:09:14;2.97;;;2.07;;
14613;SDS011;7393;51.446;6.800;2023-05-14T12:11:42;2.83;;;2.10;;
14613;SDS011;7393;51.446;6.800;2023-05-14T12:14:10;4.43;;;2.20;;
14613;SDS011;7393;51.446;6.800;2023-05-14T12:16:39;3.27;;;2.30;;
14613;SDS011;7393;51.446;6.800;2023-05-14T12:19:07;2.40;;;1.93;;
14613;SDS011;7393;51.446;6.800;2023-05-14T12:21:37;2.90;;;1.70;;
14613;SDS011;7393;51.446;6.800;2023-05-14T12:24:07;2.25;;;1.90;;
14613;SDS011;7393;51.446;6.800;2023-05-14T12:26:34;4.30;;;2.10;;
14613;SDS011;7393;51.446;6.800;2023-05-14T12:29:02;2.17;;;1.92;;
14613;SDS011;7393;51.446;6.800;2023-05-14T12:31:31;3.08;;;2.20;;
14613;SDS011;7393;51.446;6.800;2023-05-14T12:33:58;3.80;;;2.30;;
14613;SDS011;7393;51.446;6.800;2023-05-14T12:36:25;3.20;;;2.13;;
14613;SDS011;7393;51.446;6.800;2023-05-14T12:38:57;4.90;;;2.40;;
14613;SDS011;7393;51.446;6.800;2023-05-14T12:41:25;4.13;;;2.47;;
14613;SDS011;7393;51.446;6.800;2023-05-14T12:43:52;3.25;;;2.45;;
14613;SDS011;7393;51.446;6.800;2023-05-14T12:46:19;3.00;;;2.40;;
14613;SDS011;7393;51.446;6.800;2023-05-14T12:48:46;2.57;;;2.07;;
14613;SDS011;7393;51.446;6.800;2023-05-14T12:51:13;3.22;;;2.10;;
14613;SDS011;7393;51.446;6.800;2023-05-14T12:53:40;2.73;;;2.40;;
14613;SDS011;7393;51.446;6.800;2023-05-14T12:56:08;3.13;;;2.37;;
14613;SDS011;7393;51.446;6.800;2023-05-14T12:58:35;6.70;;;2.47;;
14613;SDS011;7393;51.446;6.800;2023-05-14T13:01:02;2.10;;;1.90;;
14613;SDS011;7393;51.446;6.800;2023-05-14T13:03:29;3.37;;;2.50;;
14613;SDS011;7393;51.446;6.800;2023-05-14T13:05:56;5.10;;;2.40;;
14613;SDS011;7393;51.446;6.800;2023-05-14T13:08:23;4.70;;;2.30;;
14613;SDS011;7393;51.446;6.800;2023-05-14T13:10:50;2.53;;;2.30;;
14613;SDS011;7393;51.446;6.800;2023-05-14T13:13:18;2.90;;;2.40;;
14613;SDS011;7393;51.446;6.800;2023-05-14T13:15:45;2.53;;;2.23;;
14613;SDS011;7393;51.446;6.800;2023-05-14T13:18:12;4.47;;;2.03;;
14613;SDS011;7393;51.446;6.800;2023-05-14T13:20:39;3.20;;;1.93;;
14613;SDS011;7393;51.446;6.800;2023-05-14T13:23:05;3.03;;;2.20;;
14613;SDS011;7393;51.446;6.800;2023-05-14T13:25:33;2.53;;;2.30;;
14613;SDS011;7393;51.446;6.800;2023-05-14T13:28:00;2.30;;;2.10;;
14613;SDS011;7393;51.446;6.800;2023-05-14T13:30:28;3.40;;;2.30;;
14613;SDS011;7393;51.446;6.800;2023-05-14T13:32:56;3.03;;;2.20;;
14613;SDS011;7393;51.446;6.800;2023-05-14T13:35:22;4.90;;;2.10;;
14613;SDS011;7393;51.446;6.800;2023-05-14T13:37:49;3.10;;;2.30;;
14613;SDS011;7393;51.446;6.800;2023-05-14T13:40:16;6.07;;;2.30;;
14613;SDS011;7393;51.446;6.800;2023-05-14T13:42:43;2.20;;;2.00;;
14613;SDS011;7393;51.446;6.800;2023-05-14T13:45:10;2.77;;;2.17;;
14613;SDS011;7393;51.446;6.800;2023-05-14T13:47:38;4.93;;;2.30;;
14613;SDS011;7393;51.446;6.800;2023-05-14T13:50:05;4.57;;;2.90;;
14613;SDS011;7393;51.446;6.800;2023-05-14T13:52:33;4.40;;;2.30;;
14613;SDS011;7393;51.446;6.800;2023-05-14T13:55:00;2.70;;;2.20;;
14613;SDS011;7393;51.446;6.800;2023-05-14T13:57:26;5.00;;;2.27;;
14613;SDS011;7393;51.446;6.800;2023-05-14T13:59:53;3.67;;;2.30;;
14613;SDS011;7393;51.446;6.800;2023-05-14T14:02:20;4.50;;;2.20;;
14613;SDS011;7393;51.446;6.800;2023-05-14T14:04:48;2.60;;;1.97;;
14613;SDS011;7393;51.446;6.800;2023-05-14T14:07:15;3.00;;;2.40;;
14613;SDS011;7393;51.446;6.800;2023-05-14T14:09:42;2.60;;;2.20;;
14613;SDS011;7393;51.446;6.800;2023-05-14T14:12:09;3.90;;;2.03;;
14613;SDS011;7393;51.446;6.800;2023-05-14T14:14:36;3.50;;;2.17;;
14613;SDS011;7393;51.446;6.800;2023-05-14T14:17:02;6.23;;;2.23;;
14613;SDS011;7393;51.446;6.800;2023-05-14T14:19:30;3.30;;;2.00;;
14613;SDS011;7393;51.446;6.800;2023-05-14T14:21:58;3.57;;;1.87;;
14613;SDS011;7393;51.446;6.800;2023-05-14T14:24:24;2.47;;;2.10;;
14613;SDS011;7393;51.446;6.800;2023-05-14T14:26:51;2.53;;;2.17;;
14613;SDS011;7393;51.446;6.800;2023-05-14T14:29:18;6.13;;;2.30;;
14613;SDS011;7393;51.446;6.800;2023-05-14T14:31:47;4.50;;;2.23;;
14613;SDS011;7393;51.446;6.800;2023-05-14T14:34:14;2.90;;;2.00;;
14613;SDS011;7393;51.446;6.800;2023-05-14T14:36:41;2.80;;;2.00;;
14613;SDS011;7393;51.446;6.800;2023-05-14T14:39:09;3.33;;;2.23;;
14613;SDS011;7393;51.446;6.800;2023-05-14T14:41:36;4.47;;;2.30;;
14613;SDS011;7393;51.446;6.800;2023-05-14T14:44:03;2.53;;;2.10;;
14613;SDS011;7393;51.446;6.800;2023-05-14T14:46:30;6.10;;;2.30;;
14613;SDS011;7393;51.446;6.800;2023-05-14T14:48:57;2.33;;;2.07;;
14613;SDS011;7393;51.446;6.800;2023-05-14T14:51:24;6.17;;;2.60;;
14613;SDS011;7393;51.446;6.800;2023-05-14T14:53:51;2.27;;;1.83;;
14613;SDS011;7393;51.446;6.800;2023-05-14T14:56:19;2.40;;;2.10;;